Time;durP1;ratioP1;P1;durP2;ratioP2;P2;SDS_P1;SDS_P2;PMS_P1;PMS_P2;Temp;Humidity;BMP_temperature;BMP_pressure;BME280_temperature;BME280_humidity;BME280_pressure;Samples;Min_cycle;Max_cycle;Signal;HPM_P1;HPM_P2
2023/12/05 00:01:57;;;;;;;23.80;17.10;;;3.40;97.40;;;;;;5080441;28;20212;-64
2023/12/05 00:04:24;;;;;;;26.33;18.57;;;3.40;97.40;;;;;;5079127;28;20306;-64
2023/12/05 00:06:51;;;;;;;25.80;17.37;;;3.40;97.50;;;;;;5081006;28;20236;-64
2023/12/05 00:09:19;;;;;;;27.83;19.17;;;3.40;97.50;;;;;;5083985;28;20198;-64
2023/12/05 00:11:46;;;;;;;25.07;18.40;;;3.40;97.60;;;;;;5085542;28;20231;-64
2023/12/05 00:14:13;;;;;;;24.90;16.80;;;3.40;97.60;;;;;;5079803;28;20208;-64
2023/12/05 00:16:40;;;;;;;27.97;17.67;;;3.40;97.70;;;;;;5079898;28;20235;-64
2023/12/05 00:19:07;;;;;;;25.90;18.23;;;3.40;97.60;;;;;;5078116;28;20211;-64
2023/12/05 00:21:34;;;;;;;26.53;19.17;;;3.40;97.70;;;;;;5077331;28;20263;-64
2023/12/05 00:24:01;;;;;;;24.23;17.13;;;3.40;97.70;;;;;;5074319;28;20201;-64
2023/12/05 00:26:28;;;;;;;25.70;18.30;;;3.40;97.70;;;;;;5076017;28;20209;-64
2023/12/05 00:28:55;;;;;;;27.10;18.73;;;3.40;97.70;;;;;;5067463;28;20195;-64
2023/12/05 00:31:22;;;;;;;30.47;19.07;;;3.40;97.70;;;;;;5085777;28;20253;-64
2023/12/05 00:33:49;;;;;;;26.43;18.73;;;3.40;97.70;;;;;;5085739;28;20291;-64
2023/12/05 00:36:16;;;;;;;29.93;19.10;;;3.40;97.80;;;;;;5084318;28;20198;-64
2023/12/05 00:38:44;;;;;;;27.07;19.20;;;3.40;97.80;;;;;;5086338;28;20232;-64
2023/12/05 00:41:10;;;;;;;26.50;18.00;;;3.40;97.70;;;;;;5084159;28;20269;-64
2023/12/05 00:43:37;;;;;;;26.87;18.47;;;3.40;97.70;;;;;;5084460;28;20637;-64
2023/12/05 00:46:04;;;;;;;28.87;19.37;;;3.30;97.70;;;;;;5085432;28;20196;-63
2023/12/05 00:48:32;;;;;;;28.93;19.03;;;3.30;97.80;;;;;;5080990;28;20282;-64
2023/12/05 00:50:59;;;;;;;29.30;19.63;;;3.30;97.80;;;;;;5084204;28;20637;-64
2023/12/05 00:53:26;;;;;;;29.10;18.77;;;3.30;97.90;;;;;;5084897;28;20214;-64
2023/12/05 00:55:53;;;;;;;26.70;18.80;;;3.30;97.90;;;;;;5085251;28;20201;-64
2023/12/05 00:58:21;;;;;;;30.03;18.63;;;3.30;97.90;;;;;;5079403;28;20229;-64
2023/12/05 01:00:48;;;;;;;28.90;20.27;;;3.30;98.00;;;;;;5084820;28;20210;-63
2023/12/05 01:03:15;;;;;;;24.73;19.87;;;3.30;98.00;;;;;;5081923;28;20309;-63
2023/12/05 01:05:47;;;;;;;29.50;19.30;;;3.30;98.00;;;;;;5081911;28;20200;-64
2023/12/05 01:08:14;;;;;;;26.67;18.67;;;3.30;98.00;;;;;;5082730;28;20200;-64
2023/12/05 01:10:41;;;;;;;25.63;18.10;;;3.30;97.90;;;;;;5086693;28;20194;-64
2023/12/05 01:13:08;;;;;;;26.33;17.37;;;3.30;98.00;;;;;;5087134;28;20460;-64
2023/12/05 01:15:35;;;;;;;26.37;18.33;;;3.20;98.00;;;;;;5082519;28;20205;-64
2023/12/05 01:18:02;;;;;;;27.23;18.43;;;3.20;98.10;;;;;;5086950;28;20598;-64
2023/12/05 01:20:30;;;;;;;26.33;18.17;;;3.30;98.10;;;;;;5080465;28;20201;-64
2023/12/05 01:22:57;;;;;;;26.93;18.90;;;3.20;98.20;;;;;;5087445;28;20289;-64
2023/12/05 01:25:25;;;;;;;26.60;18.20;;;3.30;98.20;;;;;;5080176;28;20285;-64
2023/12/05 01:27:52;;;;;;;28.40;19.30;;;3.20;98.20;;;;;;5087993;28;20637;-63
2023/12/05 01:30:19;;;;;;;25.70;17.60;;;3.20;98.20;;;;;;5064898;28;20213;-63
2023/12/05 01:32:46;;;;;;;26.33;17.53;;;3.20;98.30;;;;;;5083062;28;20189;-64
2023/12/05 01:35:13;;;;;;;26.10;18.03;;;3.20;98.30;;;;;;5088158;28;20204;-64
2023/12/05 01:37:41;;;;;;;26.03;18.40;;;3.20;98.40;;;;;;5082201;28;20202;-64
2023/12/05 01:40:09;;;;;;;23.13;17.10;;;3.20;98.40;;;;;;5079786;28;20207;-64
2023/12/05 01:42:37;;;;;;;23.87;17.60;;;3.20;98.50;;;;;;5082157;28;20224;-64
2023/12/05 01:45:05;;;;;;;24.83;17.50;;;3.20;98.50;;;;;;5081349;28;20319;-64
2023/12/05 01:47:39;;;;;;;25.30;17.40;;;3.30;98.60;;;;;;5084883;28;20192;-64
2023/12/05 01:50:15;;;;;;;25.03;17.33;;;3.30;98.60;;;;;;5081634;28;20207;-64
2023/12/05 01:52:47;;;;;;;25.73;18.43;;;3.30;98.60;;;;;;5081095;28;20746;-64
2023/12/05 01:55:16;;;;;;;21.97;16.33;;;3.30;98.60;;;;;;5081715;28;20520;-63
2023/12/05 01:57:43;;;;;;;24.37;16.97;;;3.30;98.70;;;;;;5083079;28;20215;-63
2023/12/05 02:00:11;;;;;;;23.57;16.50;;;3.30;98.60;;;;;;5085711;28;20277;-64
2023/12/05 02:02:40;;;;;;;22.63;16.60;;;3.30;98.70;;;;;;5082651;28;20361;-63
2023/12/05 02:05:08;;;;;;;24.50;17.47;;;3.30;98.70;;;;;;5081041;28;20261;-63
2023/12/05 02:07:36;;;;;;;23.97;16.83;;;3.30;98.60;;;;;;5081972;28;20227;-64
2023/12/05 02:10:06;;;;;;;23.30;17.50;;;3.30;98.60;;;;;;5081680;28;20284;-64
2023/12/05 02:12:33;;;;;;;20.90;15.80;;;3.30;98.50;;;;;;5066327;28;20300;-64
2023/12/05 02:15:00;;;;;;;21.93;16.30;;;3.30;98.50;;;;;;5080212;28;20211;-64
2023/12/05 02:17:34;;;;;;;21.37;16.27;;;3.20;98.50;;;;;;5083570;28;20205;-63
2023/12/05 02:20:26;;;;;;;22.37;15.80;;;3.30;98.60;;;;;;5077491;28;20659;-64
2023/12/05 02:23:01;;;;;;;21.40;16.50;;;3.20;98.50;;;;;;5084177;28;20693;-64
2023/12/05 02:25:47;;;;;;;23.27;16.33;;;3.20;98.60;;;;;;5082892;28;20197;-64
2023/12/05 02:28:15;;;;;;;21.93;16.60;;;3.20;98.60;;;;;;5061893;28;20290;-64
2023/12/05 02:30:42;;;;;;;22.37;16.40;;;3.20;98.70;;;;;;5083271;28;20589;-64
2023/12/05 02:33:09;;;;;;;23.83;16.57;;;3.20;98.80;;;;;;5081539;28;20217;-64
2023/12/05 02:35:37;;;;;;;21.23;15.73;;;3.20;98.70;;;;;;5082287;28;20630;-64
2023/12/05 02:38:22;;;;;;;25.47;17.73;;;3.20;98.70;;;;;;5083566;28;20208;-64
2023/12/05 02:40:56;;;;;;;23.97;16.97;;;3.20;98.80;;;;;;5079283;28;20258;-63
2023/12/05 02:43:36;;;;;;;21.80;16.27;;;3.20;98.80;;;;;;5082250;28;20232;-63
2023/12/05 02:46:07;;;;;;;25.87;17.57;;;3.20;98.90;;;;;;5087469;28;20636;-63
2023/12/05 02:48:37;;;;;;;23.23;16.57;;;3.20;98.90;;;;;;5086417;28;20204;-63
2023/12/05 02:51:05;;;;;;;23.50;16.00;;;3.20;98.90;;;;;;5080060;28;20242;-64
2023/12/05 02:53:32;;;;;;;24.47;17.77;;;3.20;98.90;;;;;;5080913;28;20235;-64
2023/12/05 02:56:00;;;;;;;27.30;18.87;;;3.20;99.00;;;;;;5082695;28;20214;-64
2023/12/05 02:58:27;;;;;;;33.37;20.37;;;3.20;99.00;;;;;;5079705;28;20316;-64
2023/12/05 03:00:54;;;;;;;30.47;20.23;;;3.20;99.00;;;;;;5082491;28;20197;-64
2023/12/05 03:03:21;;;;;;;28.63;19.03;;;3.30;99.10;;;;;;5082091;28;20224;-64
2023/12/05 03:05:49;;;;;;;31.63;19.60;;;3.30;99.00;;;;;;5082819;28;20253;-64
2023/12/05 03:08:16;;;;;;;29.23;19.40;;;3.20;99.00;;;;;;5076817;28;20204;-64
2023/12/05 03:10:43;;;;;;;35.37;20.97;;;3.30;99.00;;;;;;5077000;28;20191;-64
2023/12/05 03:13:24;;;;;;;30.10;19.73;;;3.30;99.00;;;;;;5083695;28;20234;-64
2023/12/05 03:15:51;;;;;;;29.97;18.57;;;3.30;99.00;;;;;;5081929;28;20201;-64
2023/12/05 03:18:18;;;;;;;29.23;19.53;;;3.30;99.00;;;;;;5077562;28;20218;-64
2023/12/05 03:20:46;;;;;;;32.37;18.97;;;3.30;99.00;;;;;;5078087;28;20205;-65
2023/12/05 03:23:16;;;;;;;30.03;20.67;;;3.30;99.00;;;;;;5076870;28;20228;-64
2023/12/05 03:25:43;;;;;;;31.77;19.93;;;3.30;99.10;;;;;;5079337;28;20221;-64
2023/12/05 03:28:11;;;;;;;33.10;20.83;;;3.30;99.10;;;;;;5078876;28;20208;-64
2023/12/05 03:30:37;;;;;;;33.50;20.63;;;3.30;99.00;;;;;;5075868;28;20203;-65
2023/12/05 03:33:04;;;;;;;32.43;20.73;;;3.30;99.00;;;;;;5080764;28;20228;-64
2023/12/05 03:35:31;;;;;;;42.23;24.03;;;3.30;99.10;;;;;;5081995;28;20230;-64
2023/12/05 03:37:58;;;;;;;42.47;22.67;;;3.30;99.10;;;;;;5084399;28;20192;-64
2023/12/05 03:40:26;;;;;;;42.87;24.23;;;3.30;99.10;;;;;;5082436;28;20684;-64
2023/12/05 03:42:53;;;;;;;41.90;25.13;;;3.30;99.10;;;;;;5078496;28;20212;-64
2023/12/05 03:45:20;;;;;;;45.03;25.63;;;3.30;99.10;;;;;;5081459;28;20212;-64
2023/12/05 03:47:47;;;;;;;47.27;25.00;;;3.20;99.10;;;;;;5082615;28;20524;-64
2023/12/05 03:50:15;;;;;;;45.13;24.57;;;3.30;99.20;;;;;;5084070;28;20200;-64
2023/12/05 03:52:42;;;;;;;48.17;25.87;;;3.20;99.10;;;;;;5080033;28;20625;-64
2023/12/05 03:55:09;;;;;;;42.17;23.63;;;3.30;99.20;;;;;;5078864;28;20210;-64
2023/12/05 03:57:35;;;;;;;44.90;24.40;;;3.30;99.20;;;;;;5080648;28;20207;-64
2023/12/05 04:00:03;;;;;;;39.93;23.10;;;3.30;99.20;;;;;;5069998;28;20662;-65
2023/12/05 04:02:37;;;;;;;39.00;22.00;;;3.20;99.10;;;;;;5083532;28;20218;-64
2023/12/05 04:05:04;;;;;;;35.07;21.07;;;3.20;99.10;;;;;;5080884;28;20225;-64
2023/12/05 04:07:31;;;;;;;36.97;21.27;;;3.30;99.20;;;;;;5083019;28;20201;-64
2023/12/05 04:09:58;;;;;;;29.27;18.93;;;3.30;99.20;;;;;;5078162;28;20220;-64
2023/12/05 04:12:26;;;;;;;30.50;19.07;;;3.30;99.20;;;;;;5079046;28;20200;-64
2023/12/05 04:14:54;;;;;;;27.43;18.77;;;3.30;99.20;;;;;;5083779;28;20199;-63
2023/12/05 04:17:21;;;;;;;28.33;18.70;;;3.30;99.20;;;;;;5081233;28;20639;-64
2023/12/05 04:19:48;;;;;;;30.03;19.37;;;3.30;99.20;;;;;;5077254;28;20221;-64
2023/12/05 04:22:15;;;;;;;29.40;19.47;;;3.30;99.20;;;;;;5079047;28;20204;-64
2023/12/05 04:24:42;;;;;;;30.20;19.37;;;3.30;99.20;;;;;;5074225;28;20543;-64
2023/12/05 04:27:09;;;;;;;31.87;19.17;;;3.30;99.20;;;;;;5076615;28;20196;-64
2023/12/05 04:29:35;;;;;;;27.10;17.83;;;3.30;99.20;;;;;;5080679;28;20196;-64
2023/12/05 04:32:03;;;;;;;26.33;18.40;;;3.30;99.20;;;;;;5078284;28;20228;-65
2023/12/05 04:34:30;;;;;;;26.90;17.67;;;3.30;99.20;;;;;;5077871;28;20208;-64
2023/12/05 04:36:57;;;;;;;27.97;18.67;;;3.20;99.20;;;;;;5079386;28;20196;-63
2023/12/05 04:39:24;;;;;;;27.23;19.17;;;3.30;99.20;;;;;;5084321;28;20284;-63
2023/12/05 04:41:51;;;;;;;28.20;18.37;;;3.30;99.20;;;;;;5079426;28;20228;-63
2023/12/05 04:44:18;;;;;;;25.47;17.67;;;3.30;99.10;;;;;;5079212;28;20258;-64
2023/12/05 04:46:44;;;;;;;29.07;20.00;;;3.30;99.10;;;;;;5084406;28;20538;-64
2023/12/05 04:49:11;;;;;;;26.13;17.03;;;3.30;99.10;;;;;;5081425;28;20196;-64
2023/12/05 04:51:38;;;;;;;29.10;18.27;;;3.30;99.10;;;;;;5085452;28;20203;-64
2023/12/05 04:54:08;;;;;;;28.50;19.60;;;3.30;99.20;;;;;;5081174;28;20638;-64
2023/12/05 04:56:35;;;;;;;28.00;18.13;;;3.20;99.10;;;;;;5079466;28;20197;-64
2023/12/05 04:59:02;;;;;;;25.30;17.90;;;3.30;99.20;;;;;;5082295;28;20263;-64
2023/12/05 05:01:29;;;;;;;32.90;19.97;;;3.30;99.20;;;;;;5081500;28;20195;-64
2023/12/05 05:03:56;;;;;;;32.17;18.93;;;3.30;99.30;;;;;;5079699;28;20555;-64
2023/12/05 05:06:30;;;;;;;29.33;18.77;;;3.30;99.30;;;;;;5079465;28;20193;-64
2023/12/05 05:08:57;;;;;;;31.03;19.67;;;3.30;99.20;;;;;;5077347;28;20603;-64
2023/12/05 05:11:24;;;;;;;30.87;20.20;;;3.20;99.20;;;;;;5080959;28;20217;-64
2023/12/05 05:13:51;;;;;;;30.27;19.83;;;3.30;99.20;;;;;;5080816;28;20258;-64
2023/12/05 05:16:24;;;;;;;29.37;19.07;;;3.20;99.10;;;;;;5085441;28;20210;-64
2023/12/05 05:18:52;;;;;;;32.47;20.90;;;3.30;99.10;;;;;;5080830;28;20239;-64
2023/12/05 05:21:20;;;;;;;30.80;21.07;;;3.20;99.00;;;;;;5083909;28;20199;-65
2023/12/05 05:23:47;;;;;;;34.10;20.70;;;3.20;99.00;;;;;;5080579;28;20221;-64
2023/12/05 05:26:14;;;;;;;35.37;21.17;;;3.20;99.00;;;;;;5088990;28;20204;-64
2023/12/05 05:28:41;;;;;;;32.77;20.93;;;3.20;99.00;;;;;;5083572;28;20200;-64
2023/12/05 05:31:08;;;;;;;37.70;21.50;;;3.20;99.10;;;;;;5083262;28;20195;-64
2023/12/05 05:33:35;;;;;;;33.67;20.67;;;3.20;99.20;;;;;;5077699;28;20206;-65
2023/12/05 05:36:03;;;;;;;35.97;20.97;;;3.10;99.20;;;;;;5083317;28;20601;-64
2023/12/05 05:38:30;;;;;;;34.37;21.20;;;3.10;99.20;;;;;;5083729;28;20253;-64
2023/12/05 05:41:04;;;;;;;31.23;20.90;;;3.20;99.30;;;;;;5091962;28;20238;-64
2023/12/05 05:43:31;;;;;;;37.87;22.67;;;3.20;99.40;;;;;;5086575;28;20243;-64
2023/12/05 05:45:58;;;;;;;31.77;20.00;;;3.10;99.30;;;;;;5084003;28;20641;-64
2023/12/05 05:48:25;;;;;;;31.53;21.10;;;3.10;99.30;;;;;;5082360;28;20196;-64
2023/12/05 05:50:52;;;;;;;36.40;20.97;;;3.10;99.30;;;;;;5083855;28;20197;-64
2023/12/05 05:53:19;;;;;;;40.17;22.53;;;3.10;99.30;;;;;;5085536;28;20197;-64
2023/12/05 05:55:46;;;;;;;33.33;22.03;;;3.10;99.30;;;;;;5071860;28;20649;-64
2023/12/05 05:58:13;;;;;;;34.70;21.37;;;3.10;99.40;;;;;;5069112;28;20572;-64
2023/12/05 06:00:40;;;;;;;31.97;20.63;;;3.10;99.50;;;;;;5070124;28;20200;-64
2023/12/05 06:03:08;;;;;;;36.50;22.37;;;3.00;99.50;;;;;;5084220;28;20353;-64
2023/12/05 06:05:35;;;;;;;33.87;21.03;;;3.10;99.50;;;;;;5085472;28;20650;-64
2023/12/05 06:08:02;;;;;;;34.03;20.50;;;3.00;99.50;;;;;;5086700;28;20195;-64
2023/12/05 06:10:29;;;;;;;36.40;21.80;;;3.00;99.60;;;;;;5082653;28;20269;-64
2023/12/05 06:12:56;;;;;;;33.60;21.43;;;3.00;99.60;;;;;;5065106;28;20524;-64
2023/12/05 06:15:23;;;;;;;35.07;22.53;;;3.10;99.70;;;;;;5081461;28;20280;-63
2023/12/05 06:17:50;;;;;;;40.20;23.17;;;3.10;99.80;;;;;;5080904;28;20288;-63
2023/12/05 06:20:17;;;;;;;37.07;22.97;;;3.10;99.80;;;;;;5085748;28;20209;-63
2023/12/05 06:22:45;;;;;;;39.47;23.47;;;3.10;99.90;;;;;;5068746;28;20219;-63
2023/12/05 06:25:11;;;;;;;41.77;23.50;;;3.10;99.80;;;;;;5079155;28;20205;-63
2023/12/05 06:27:39;;;;;;;42.40;25.57;;;3.10;99.80;;;;;;5078967;28;20223;-63
2023/12/05 06:30:06;;;;;;;41.37;24.27;;;3.10;99.80;;;;;;5089281;28;20205;-63
2023/12/05 06:32:47;;;;;;;40.47;22.80;;;3.10;99.80;;;;;;5081500;28;20195;-63
2023/12/05 06:35:14;;;;;;;41.90;24.07;;;3.10;99.80;;;;;;5080322;28;20284;-63
2023/12/05 06:37:42;;;;;;;39.37;22.77;;;3.10;99.70;;;;;;5086581;28;20660;-63
2023/12/05 06:40:09;;;;;;;45.40;25.17;;;3.10;99.70;;;;;;5080966;28;20219;-64
2023/12/05 06:42:37;;;;;;;42.80;24.30;;;3.10;99.80;;;;;;5087832;28;20208;-64
2023/12/05 06:45:04;;;;;;;41.53;23.43;;;3.10;99.80;;;;;;5084836;28;20673;-63
2023/12/05 06:47:32;;;;;;;39.87;22.83;;;3.10;99.90;;;;;;5080867;28;20196;-63
2023/12/05 06:50:05;;;;;;;39.40;24.37;;;3.10;99.90;;;;;;5084547;28;20210;-63
2023/12/05 06:52:32;;;;;;;43.20;24.70;;;3.10;99.90;;;;;;5079787;28;20284;-63
2023/12/05 06:54:59;;;;;;;39.03;23.60;;;3.10;99.90;;;;;;5066166;28;20203;-63
2023/12/05 06:57:26;;;;;;;37.97;22.20;;;3.10;99.90;;;;;;5079181;28;20260;-63
2023/12/05 06:59:53;;;;;;;35.57;21.90;;;3.20;99.90;;;;;;5081592;28;20289;-64
2023/12/05 07:02:21;;;;;;;37.03;22.57;;;3.20;99.90;;;;;;5084781;28;20209;-64
2023/12/05 07:04:48;;;;;;;39.13;22.07;;;3.20;99.90;;;;;;5081295;28;20235;-63
2023/12/05 07:07:16;;;;;;;36.93;21.50;;;3.20;99.90;;;;;;5082638;28;20254;-63
2023/12/05 07:09:43;;;;;;;37.90;22.03;;;3.20;99.90;;;;;;5084024;28;20189;-63
2023/12/05 07:12:10;;;;;;;33.77;18.90;;;3.20;99.90;;;;;;5083481;28;20216;-63
2023/12/05 07:14:37;;;;;;;32.00;21.43;;;3.30;99.90;;;;;;5082429;28;20284;-63
2023/12/05 07:17:05;;;;;;;36.93;22.03;;;3.30;99.90;;;;;;5084622;28;20213;-63
2023/12/05 07:19:32;;;;;;;33.57;21.57;;;3.30;99.90;;;;;;5081185;28;20207;-63
2023/12/05 07:21:59;;;;;;;31.10;18.97;;;3.30;99.90;;;;;;5080030;28;20198;-63
2023/12/05 07:24:26;;;;;;;28.80;19.40;;;3.30;99.90;;;;;;5082669;28;20654;-63
2023/12/05 07:26:54;;;;;;;33.27;20.17;;;3.40;99.90;;;;;;5084467;28;20204;-63
2023/12/05 07:29:21;;;;;;;36.27;21.53;;;3.30;99.90;;;;;;5066528;28;20212;-63
2023/12/05 07:31:48;;;;;;;30.10;19.33;;;3.40;99.90;;;;;;5084567;28;20209;-63
2023/12/05 07:34:16;;;;;;;30.77;20.77;;;3.40;99.90;;;;;;5081610;28;20614;-62
2023/12/05 07:36:43;;;;;;;31.53;20.80;;;3.40;99.90;;;;;;5066052;28;20572;-63
2023/12/05 07:39:10;;;;;;;29.77;19.83;;;3.40;99.90;;;;;;5076261;28;20205;-63
2023/12/05 07:41:38;;;;;;;34.20;20.60;;;3.40;99.90;;;;;;5080273;28;20200;-63
2023/12/05 07:44:08;;;;;;;32.33;20.47;;;3.40;99.90;;;;;;5081436;28;20233;-63
2023/12/05 07:46:35;;;;;;;28.80;19.87;;;3.40;99.90;;;;;;5086433;28;20205;-63
2023/12/05 07:49:03;;;;;;;31.10;20.30;;;3.40;99.90;;;;;;5080942;28;20200;-63
2023/12/05 07:51:30;;;;;;;35.17;22.37;;;3.40;99.90;;;;;;5064851;28;20284;-63
2023/12/05 07:53:57;;;;;;;32.10;19.93;;;3.40;99.90;;;;;;5085685;28;20232;-63
2023/12/05 07:56:24;;;;;;;29.87;18.77;;;3.50;99.90;;;;;;5082768;28;20239;-63
2023/12/05 07:58:51;;;;;;;32.83;20.73;;;3.50;99.90;;;;;;5078123;28;20650;-63
2023/12/05 08:01:18;;;;;;;35.40;20.47;;;3.50;99.90;;;;;;5080251;28;20758;-63
2023/12/05 08:03:45;;;;;;;36.77;21.83;;;3.50;99.90;;;;;;5068299;28;20244;-63
2023/12/05 08:06:13;;;;;;;31.33;19.40;;;3.50;99.90;;;;;;5082222;28;20361;-63
2023/12/05 08:08:40;;;;;;;29.93;19.13;;;3.50;99.90;;;;;;5083689;28;20578;-63
2023/12/05 08:11:09;;;;;;;29.10;19.43;;;3.60;99.90;;;;;;5085281;28;20304;-63
2023/12/05 08:13:37;;;;;;;29.03;19.50;;;3.60;99.90;;;;;;5079410;28;20197;-63
2023/12/05 08:16:04;;;;;;;31.47;19.80;;;3.60;99.90;;;;;;5084049;28;20200;-63
2023/12/05 08:18:31;;;;;;;30.63;19.13;;;3.60;99.90;;;;;;5080044;28;20214;-63
2023/12/05 08:20:58;;;;;;;30.53;20.00;;;3.60;99.90;;;;;;5081040;28;20212;-63
2023/12/05 08:23:25;;;;;;;26.13;18.17;;;3.70;99.90;;;;;;5086746;28;20644;-64
2023/12/05 08:25:52;;;;;;;31.40;19.20;;;3.70;99.90;;;;;;5083217;28;20216;-63
2023/12/05 08:28:19;;;;;;;29.20;20.17;;;3.60;99.80;;;;;;5079879;28;20270;-63
2023/12/05 08:30:46;;;;;;;31.13;20.47;;;3.70;99.80;;;;;;5079566;28;20211;-63
2023/12/05 08:33:14;;;;;;;30.37;18.90;;;3.70;99.80;;;;;;5080186;28;20213;-63
2023/12/05 08:35:41;;;;;;;30.30;18.97;;;3.70;99.80;;;;;;5092179;28;20524;-63
2023/12/05 08:38:08;;;;;;;31.90;20.73;;;3.70;99.80;;;;;;5080195;28;20202;-63
2023/12/05 08:40:35;;;;;;;32.27;20.03;;;3.70;99.80;;;;;;5080785;28;20266;-63
2023/12/05 08:43:05;;;;;;;33.47;20.07;;;3.70;99.80;;;;;;5083422;28;20204;-63
2023/12/05 08:45:32;;;;;;;30.17;19.80;;;3.80;99.80;;;;;;5079614;28;20513;-63
2023/12/05 08:47:59;;;;;;;31.07;20.13;;;3.80;99.80;;;;;;5083569;28;20467;-63
2023/12/05 08:50:27;;;;;;;32.07;20.63;;;3.80;99.80;;;;;;5084961;28;20675;-63
2023/12/05 08:52:54;;;;;;;34.20;19.37;;;3.80;99.70;;;;;;5080904;28;20204;-63
2023/12/05 08:55:21;;;;;;;34.13;20.80;;;3.80;99.70;;;;;;5085251;28;20208;-63
2023/12/05 08:57:48;;;;;;;32.90;20.40;;;3.90;99.70;;;;;;5086148;28;20197;-64
2023/12/05 09:00:16;;;;;;;31.03;20.03;;;3.90;99.70;;;;;;5086163;28;20205;-63
2023/12/05 09:02:43;;;;;;;29.70;19.33;;;3.90;99.60;;;;;;5082304;28;20220;-63
2023/12/05 09:05:10;;;;;;;30.97;19.03;;;3.90;99.50;;;;;;5074493;28;20231;-63
2023/12/05 09:07:38;;;;;;;31.87;20.13;;;3.90;99.50;;;;;;5085504;28;20261;-63
2023/12/05 09:10:05;;;;;;;34.10;21.93;;;3.90;99.50;;;;;;5083804;28;20218;-63
2023/12/05 09:12:32;;;;;;;32.30;20.70;;;4.00;99.50;;;;;;5086759;28;20594;-63
2023/12/05 09:14:59;;;;;;;37.53;20.77;;;4.00;99.70;;;;;;5087520;28;20205;-63
2023/12/05 09:17:28;;;;;;;34.03;23.00;;;4.00;99.40;;;;;;5081936;28;20729;-64
2023/12/05 09:19:55;;;;;;;32.30;20.77;;;4.00;99.40;;;;;;5083273;28;20202;-64
2023/12/05 09:22:22;;;;;;;33.13;20.33;;;4.10;99.50;;;;;;5086618;28;20204;-63
2023/12/05 09:24:49;;;;;;;32.03;21.17;;;4.10;99.50;;;;;;5086823;28;20212;-64
2023/12/05 09:27:16;;;;;;;31.93;21.17;;;4.10;99.40;;;;;;5087933;28;20551;-64
2023/12/05 09:29:43;;;;;;;32.30;20.63;;;4.20;99.40;;;;;;5081882;28;20197;-64
2023/12/05 09:32:17;;;;;;;31.57;20.57;;;4.20;99.30;;;;;;5085115;28;20599;-64
2023/12/05 09:34:45;;;;;;;36.37;21.97;;;4.20;99.30;;;;;;5065304;28;20207;-64
2023/12/05 09:37:12;;;;;;;32.47;21.57;;;4.20;99.30;;;;;;5080849;28;20200;-63
2023/12/05 09:39:41;;;;;;;29.77;19.50;;;4.20;99.30;;;;;;5082152;28;20201;-64
2023/12/05 09:42:13;;;;;;;31.87;21.33;;;4.20;99.20;;;;;;5079399;28;20203;-63
2023/12/05 09:44:46;;;;;;;32.93;21.37;;;4.30;99.20;;;;;;5064710;28;20532;-64
2023/12/05 09:47:20;;;;;;;34.53;20.27;;;4.30;99.20;;;;;;5081014;28;20209;-63
2023/12/05 09:49:47;;;;;;;39.23;21.50;;;4.30;99.20;;;;;;5070915;28;20212;-64
2023/12/05 09:52:15;;;;;;;32.30;20.30;;;4.30;99.10;;;;;;5076296;28;20258;-63
2023/12/05 09:54:43;;;;;;;36.20;22.77;;;4.30;99.00;;;;;;5082943;28;20497;-63
2023/12/05 09:57:14;;;;;;;36.00;22.00;;;4.20;99.00;;;;;;5082713;28;20281;-63
2023/12/05 09:59:41;;;;;;;37.03;21.23;;;4.20;99.00;;;;;;5085937;28;20514;-63
2023/12/05 10:02:10;;;;;;;37.80;22.83;;;4.20;99.00;;;;;;5077643;28;20662;-64
2023/12/05 10:04:44;;;;;;;38.90;22.90;;;4.20;99.00;;;;;;5080140;28;20228;-63
2023/12/05 10:07:13;;;;;;;40.13;22.37;;;4.20;99.00;;;;;;5084762;28;20204;-64
2023/12/05 10:09:42;;;;;;;44.87;23.83;;;4.20;99.10;;;;;;5080520;28;20208;-63
2023/12/05 10:12:10;;;;;;;42.70;22.63;;;4.20;99.10;;;;;;5082831;28;20213;-63
2023/12/05 10:14:38;;;;;;;41.40;21.83;;;4.20;99.10;;;;;;5073921;28;20200;-64
2023/12/05 10:17:06;;;;;;;36.40;21.07;;;4.20;99.10;;;;;;5087127;28;20205;-63
2023/12/05 10:19:34;;;;;;;38.67;22.30;;;4.30;99.10;;;;;;5082172;28;20516;-63
2023/12/05 10:22:02;;;;;;;34.63;21.27;;;4.30;99.10;;;;;;5081270;28;20291;-63
2023/12/05 10:24:42;;;;;;;39.60;22.67;;;4.20;99.00;;;;;;5080987;28;20624;-66
2023/12/05 10:27:10;;;;;;;38.13;21.80;;;4.30;99.00;;;;;;5064979;28;20206;-64
2023/12/05 10:29:42;;;;;;;34.50;21.37;;;4.30;99.00;;;;;;5086920;28;20215;-64
2023/12/05 10:32:13;;;;;;;35.67;21.77;;;4.30;99.00;;;;;;5081864;28;20220;-62
2023/12/05 10:34:51;;;;;;;36.63;22.80;;;4.30;99.00;;;;;;5081219;28;20267;-63
2023/12/05 10:37:22;;;;;;;36.90;21.97;;;4.30;99.00;;;;;;5086620;28;20220;-63
2023/12/05 10:39:54;;;;;;;36.30;22.00;;;4.30;99.00;;;;;;5064881;28;20240;-64
2023/12/05 10:42:28;;;;;;;36.03;20.90;;;4.30;99.00;;;;;;5082143;28;20202;-64
2023/12/05 10:44:55;;;;;;;37.67;22.80;;;4.30;99.00;;;;;;5083146;28;20648;-64
2023/12/05 10:47:26;;;;;;;38.07;23.23;;;4.30;99.00;;;;;;5080739;28;20665;-64
2023/12/05 10:49:54;;;;;;;40.03;21.43;;;4.40;99.00;;;;;;5086705;28;20188;-64
2023/12/05 10:52:21;;;;;;;32.97;21.53;;;4.40;99.00;;;;;;5084198;28;20200;-64
2023/12/05 10:54:57;;;;;;;30.43;20.63;;;4.50;99.00;;;;;;5072831;28;20212;-64
2023/12/05 10:57:33;;;;;;;35.17;21.23;;;4.50;98.90;;;;;;5083291;28;20207;-64
2023/12/05 11:00:03;;;;;;;30.10;20.13;;;4.50;99.00;;;;;;5082912;28;20254;-63
2023/12/05 11:02:31;;;;;;;28.87;19.43;;;4.60;99.00;;;;;;5086061;28;20197;-65
2023/12/05 11:05:03;;;;;;;31.70;20.60;;;4.60;98.90;;;;;;5083543;28;20225;-65
2023/12/05 11:07:30;;;;;;;30.77;20.00;;;4.70;99.00;;;;;;5082490;28;20632;-64
2023/12/05 11:09:57;;;;;;;30.30;20.30;;;4.70;98.90;;;;;;5081430;28;20307;-64
2023/12/05 11:12:25;;;;;;;31.93;21.13;;;4.80;98.90;;;;;;5078803;28;20240;-65
2023/12/05 11:14:55;;;;;;;27.50;19.67;;;4.80;98.90;;;;;;5058910;28;20225;-64
2023/12/05 11:17:28;;;;;;;28.00;18.70;;;4.90;98.90;;;;;;5079945;28;20204;-63
2023/12/05 11:20:13;;;;;;;30.20;19.43;;;4.90;98.80;;;;;;5080067;28;20211;-64
2023/12/05 11:22:55;;;;;;;26.67;18.53;;;4.90;98.80;;;;;;5084450;28;20216;-64
2023/12/05 11:25:43;;;;;;;29.93;18.73;;;5.00;98.70;;;;;;5083165;28;20651;-64
2023/12/05 11:28:13;;;;;;;29.57;19.17;;;5.00;98.70;;;;;;5076741;28;20194;-64
2023/12/05 11:31:24;;;;;;;29.80;18.60;;;5.00;98.60;;;;;;5077799;28;20181;-65
2023/12/05 11:34:14;;;;;;;31.87;18.57;;;5.00;98.60;;;;;;5081964;28;20190;-65
2023/12/05 11:36:56;;;;;;;29.30;19.13;;;5.00;98.50;;;;;;5064564;28;20216;-64
2023/12/05 11:39:23;;;;;;;29.57;19.13;;;5.00;98.50;;;;;;5066100;28;20211;-65
2023/12/05 11:42:08;;;;;;;28.20;18.40;;;5.00;98.40;;;;;;5083273;28;20229;-64
2023/12/05 11:44:39;;;;;;;32.73;20.03;;;5.00;98.40;;;;;;5081508;28;20229;-65
2023/12/05 11:47:14;;;;;;;31.47;19.33;;;4.90;98.70;;;;;;5082574;28;20204;-63
2023/12/05 11:49:53;;;;;;;32.73;20.07;;;4.90;98.40;;;;;;5081571;28;20288;-63
2023/12/05 11:52:21;;;;;;;34.97;19.97;;;4.90;98.40;;;;;;5088429;28;20204;-64
2023/12/05 11:54:50;;;;;;;33.17;19.37;;;4.90;98.40;;;;;;5077962;28;20219;-65
2023/12/05 11:57:19;;;;;;;32.83;20.03;;;4.90;98.40;;;;;;5082786;28;20208;-64
2023/12/05 11:59:47;;;;;;;28.57;18.80;;;4.90;98.50;;;;;;5066910;28;20207;-64
2023/12/05 12:02:23;;;;;;;29.47;19.57;;;5.00;98.60;;;;;;5078749;28;20212;-65
2023/12/05 12:05:00;;;;;;;33.83;20.20;;;5.00;98.60;;;;;;5081065;28;20247;-64
2023/12/05 12:07:27;;;;;;;31.70;19.80;;;5.00;98.60;;;;;;5078761;28;20201;-65
2023/12/05 12:09:54;;;;;;;33.43;20.33;;;5.00;98.60;;;;;;5067153;28;20206;-64
2023/12/05 12:12:21;;;;;;;31.13;18.10;;;5.00;98.60;;;;;;5081089;28;20220;-64
2023/12/05 12:14:48;;;;;;;35.70;19.97;;;5.10;98.60;;;;;;5079649;28;20574;-64
2023/12/05 12:17:16;;;;;;;31.77;18.97;;;5.00;98.60;;;;;;5080742;28;20729;-64
2023/12/05 12:19:43;;;;;;;29.67;18.50;;;5.00;98.60;;;;;;5086343;28;20262;-65
2023/12/05 12:22:14;;;;;;;27.80;18.10;;;5.10;98.60;;;;;;5079847;28;20544;-65
2023/12/05 12:24:41;;;;;;;34.13;19.17;;;5.10;98.60;;;;;;5083598;28;20288;-65
2023/12/05 12:27:09;;;;;;;29.07;17.80;;;5.10;98.60;;;;;;5083647;28;20232;-64
2023/12/05 12:29:36;;;;;;;34.57;18.33;;;5.10;98.60;;;;;;5086781;28;20591;-65
2023/12/05 12:32:09;;;;;;;31.00;18.83;;;5.10;98.60;;;;;;5086627;28;20531;-66
2023/12/05 12:34:38;;;;;;;32.20;19.37;;;5.10;98.60;;;;;;5083471;28;20215;-64
2023/12/05 12:37:06;;;;;;;30.23;18.93;;;5.10;98.60;;;;;;5082109;28;20267;-65
2023/12/05 12:39:46;;;;;;;34.97;19.83;;;5.10;98.70;;;;;;5082822;28;20242;-63
2023/12/05 12:42:16;;;;;;;27.23;17.23;;;5.10;98.70;;;;;;5085912;28;20287;-64
2023/12/05 12:44:43;;;;;;;31.73;19.23;;;5.10;98.70;;;;;;5084011;28;20273;-63